Time;durP1;ratioP1;P1;durP2;ratioP2;P2;SDS_P1;SDS_P2;PMS_P1;PMS_P2;Temp;Humidity;BMP_temperature;BMP_pressure;BME280_temperature;BME280_humidity;BME280_pressure;Samples;Min_cycle;Max_cycle;Signal;HPM_P1;HPM_P2
2021/10/11 00:00:34;;;;;;;15.02;11.43;;;;;;;6.72;74.84;100837.16;1087637;54;20042;-76
2021/10/11 00:01:35;;;;;;;15.07;11.60;;;;;;;6.66;74.98;100832.25;1087676;54;20045;-76
2021/10/11 00:02:39;;;;;;;15.90;11.60;;;;;;;6.62;74.98;100847.50;1087672;54;20034;-76
2021/10/11 00:03:41;;;;;;;13.40;10.80;;;;;;;6.63;75.14;100848.38;1087712;54;20041;-75
2021/10/11 00:04:45;;;;;;;15.65;11.30;;;;;;;6.60;75.13;100849.44;1088614;39;20620;-77
2021/10/11 00:05:49;;;;;;;17.77;11.88;;;;;;;6.55;75.25;100855.06;1087699;54;20058;-77
2021/10/11 00:06:51;;;;;;;17.15;12.15;;;;;;;6.49;75.54;100852.78;1088590;39;20277;-75
2021/10/11 00:07:55;;;;;;;17.50;12.18;;;;;;;6.55;75.71;100846.22;1089261;39;20574;-77
2021/10/11 00:08:57;;;;;;;15.05;11.57;;;;;;;6.53;75.41;100848.09;1087804;54;20041;-75
2021/10/11 00:10:01;;;;;;;17.17;11.70;;;;;;;6.52;75.71;100846.41;1087694;54;20031;-76
2021/10/11 00:11:03;;;;;;;17.17;12.55;;;;;;;6.46;75.55;100846.81;1087916;54;20034;-77
2021/10/11 00:12:08;;;;;;;17.77;12.27;;;;;;;6.40;75.84;100859.53;1087984;54;20076;-76
2021/10/11 00:13:10;;;;;;;15.70;12.23;;;;;;;6.35;76.26;100848.34;1087906;54;20038;-76
2021/10/11 00:14:14;;;;;;;17.02;11.82;;;;;;;6.29;76.46;100848.75;1088061;54;20054;-76
2021/10/11 00:15:17;;;;;;;19.95;12.63;;;;;;;6.34;76.14;100859.91;1087782;54;20030;-76
2021/10/11 00:16:24;;;;;;;18.50;12.93;;;;;;;6.28;76.33;100849.69;1089246;46;20974;-76
2021/10/11 00:17:25;;;;;;;18.23;13.10;;;;;;;6.24;76.32;100848.16;1087878;54;20043;-75
2021/10/11 00:18:29;;;;;;;16.25;12.75;;;;;;;6.24;76.11;100853.47;1088039;54;20031;-76
2021/10/11 00:19:35;;;;;;;17.25;12.30;;;;;;;6.29;75.96;100851.41;1088071;54;20041;-76
2021/10/11 00:20:39;;;;;;;16.08;11.85;;;;;;;6.23;75.86;100842.00;1087871;54;20034;-76
2021/10/11 00:21:41;;;;;;;17.60;11.90;;;;;;;6.19;76.03;100837.84;1087993;54;20061;-76
2021/10/11 00:22:46;;;;;;;16.45;12.23;;;;;;;6.18;76.12;100843.25;1087858;54;20035;-75
2021/10/11 00:23:47;;;;;;;17.38;12.65;;;;;;;6.09;76.32;100834.91;1087880;54;20041;-75
2021/10/11 00:24:52;;;;;;;16.23;12.32;;;;;;;6.07;76.62;100839.47;1087918;54;20054;-76
2021/10/11 00:25:53;;;;;;;16.95;12.93;;;;;;;6.03;76.59;100835.31;1088361;46;20030;-76
2021/10/11 00:26:57;;;;;;;17.65;12.45;;;;;;;6.01;76.73;100834.56;1087975;54;20026;-76
2021/10/11 00:27:59;;;;;;;19.15;12.95;;;;;;;6.01;76.84;100841.66;1087819;54;20039;-76
2021/10/11 00:29:03;;;;;;;19.00;12.85;;;;;;;6.00;76.91;100839.97;1087846;54;20034;-76
2021/10/11 00:30:07;;;;;;;15.77;11.20;;;;;;;6.11;76.50;100840.13;1087826;54;20057;-76
2021/10/11 00:31:11;;;;;;;14.48;11.57;;;;;;;6.06;76.34;100837.75;1087766;54;20413;-76
2021/10/11 00:32:15;;;;;;;17.65;12.35;;;;;;;6.09;76.47;100832.28;1087703;54;20050;-75
2021/10/11 00:33:20;;;;;;;16.73;11.93;;;;;;;6.04;76.42;100825.53;1087724;54;20036;-75
2021/10/11 00:34:21;;;;;;;18.92;11.95;;;;;;;6.03;76.47;100819.41;1087770;54;20041;-75
2021/10/11 00:35:26;;;;;;;15.73;11.88;;;;;;;5.97;76.86;100822.38;1087660;54;20057;-77
2021/10/11 00:36:27;;;;;;;18.52;12.80;;;;;;;5.98;76.67;100817.94;1087788;54;20042;-76
2021/10/11 00:37:31;;;;;;;17.95;13.10;;;;;;;5.99;76.68;100817.88;1087823;54;20065;-75
2021/10/11 00:38:33;;;;;;;18.45;13.02;;;;;;;6.00;76.63;100816.09;1087888;54;20030;-76
2021/10/11 00:39:37;;;;;;;16.55;12.82;;;;;;;5.96;76.77;100815.38;1087767;54;20109;-76
2021/10/11 00:40:39;;;;;;;16.33;12.38;;;;;;;5.95;76.62;100816.34;1088195;46;20015;-76
2021/10/11 00:41:43;;;;;;;19.40;13.48;;;;;;;5.93;76.73;100812.91;1087710;54;20030;-75
2021/10/11 00:42:45;;;;;;;17.27;12.32;;;;;;;5.92;76.72;100816.53;1087621;54;20098;-76
2021/10/11 00:43:49;;;;;;;19.55;13.07;;;;;;;5.84;77.12;100824.94;1087852;54;20034;-76
2021/10/11 00:44:50;;;;;;;19.13;13.52;;;;;;;5.83;77.10;100828.53;1087743;54;20041;-76
2021/10/11 00:45:55;;;;;;;17.60;12.82;;;;;;;5.80;77.17;100833.19;1087767;54;20115;-76
2021/10/11 00:46:56;;;;;;;22.80;12.90;;;;;;;5.73;77.38;100833.59;1087595;54;20035;-76
2021/10/11 00:48:03;;;;;;;16.88;12.85;;;;;;;5.72;77.18;100833.66;1087608;54;20038;-76
2021/10/11 00:49:05;;;;;;;17.25;12.13;;;;;;;5.66;77.27;100828.72;1087846;54;20030;-77
2021/10/11 00:50:12;;;;;;;18.25;12.88;;;;;;;5.69;77.17;100821.44;1087822;54;20030;-76
2021/10/11 00:51:14;;;;;;;16.52;11.95;;;;;;;5.67;77.11;100823.31;1087279;54;20043;-76
2021/10/11 00:52:18;;;;;;;16.55;12.70;;;;;;;5.61;77.27;100824.59;1087743;54;20080;-75
2021/10/11 00:53:20;;;;;;;17.17;12.18;;;;;;;5.62;77.20;100828.06;1087652;54;20042;-77
2021/10/11 00:54:25;;;;;;;17.80;12.68;;;;;;;5.62;77.28;100826.25;1087677;54;20011;-76
2021/10/11 00:55:27;;;;;;;17.65;11.88;;;;;;;5.65;76.94;100833.19;1087668;54;20034;-76
2021/10/11 00:56:31;;;;;;;18.33;11.93;;;;;;;5.66;77.12;100832.25;1087708;54;20031;-76
2021/10/11 00:57:32;;;;;;;15.07;10.93;;;;;;;5.70;77.06;100830.28;1087661;54;20034;-76
2021/10/11 00:58:37;;;;;;;14.65;10.88;;;;;;;5.70;77.01;100828.44;1087649;54;20044;-76
2021/10/11 00:59:39;;;;;;;15.25;10.82;;;;;;;5.74;76.60;100829.97;1087669;54;20053;-75
2021/10/11 01:00:43;;;;;;;14.30;10.15;;;;;;;5.77;76.52;100829.78;1087778;54;20027;-76
2021/10/11 01:01:45;;;;;;;16.13;11.90;;;;;;;5.76;76.62;100827.22;1087570;54;20094;-77
2021/10/11 01:02:49;;;;;;;15.02;10.43;;;;;;;5.73;76.58;100822.09;1087555;54;20031;-76
2021/10/11 01:03:53;;;;;;;16.33;12.60;;;;;;;5.63;76.97;100821.81;1087718;46;20038;-75
2021/10/11 01:04:57;;;;;;;16.20;11.48;;;;;;;5.62;77.11;100825.41;1087728;54;20054;-76
2021/10/11 01:05:59;;;;;;;17.92;11.93;;;;;;;5.55;76.92;100818.78;1087723;54;20524;-77
2021/10/11 01:07:03;;;;;;;15.68;11.18;;;;;;;5.58;77.09;100829.19;1087902;54;20034;-76
2021/10/11 01:08:07;;;;;;;15.43;11.68;;;;;;;5.62;76.82;100828.06;1087726;54;20034;-77
2021/10/11 01:09:11;;;;;;;16.25;10.98;;;;;;;5.63;76.68;100832.44;1087779;54;20039;-77
2021/10/11 01:10:15;;;;;;;15.63;10.23;;;;;;;5.75;76.31;100829.03;1088073;39;20563;-77
2021/10/11 01:11:20;;;;;;;14.35;9.65;;;;;;;5.86;75.82;100832.81;1087600;54;20041;-77
2021/10/11 01:12:21;;;;;;;16.83;10.52;;;;;;;5.80;75.98;100827.88;1087759;54;20039;-76
2021/10/11 01:13:26;;;;;;;14.40;9.98;;;;;;;5.80;75.88;100841.16;1087766;54;20110;-77
2021/10/11 01:14:28;;;;;;;14.07;10.27;;;;;;;5.82;75.83;100837.44;1091339;39;20653;-76
2021/10/11 01:15:34;;;;;;;14.13;10.25;;;;;;;5.84;75.72;100832.91;1087847;54;22203;-76
2021/10/11 01:16:35;;;;;;;13.98;9.73;;;;;;;5.94;75.41;100835.88;1087745;54;20065;-76
2021/10/11 01:17:40;;;;;;;15.60;10.77;;;;;;;5.95;75.23;100826.97;1088207;39;20336;-77
2021/10/11 01:18:41;;;;;;;13.13;10.13;;;;;;;5.97;75.24;100827.69;1088401;39;20288;-77
2021/10/11 01:19:51;;;;;;;12.38;9.50;;;;;;;5.96;74.91;100819.84;1087986;54;20033;-76
2021/10/11 01:20:58;;;;;;;13.18;10.45;;;;;;;5.90;75.05;100824.56;1087981;54;20034;-78
2021/10/11 01:21:59;;;;;;;13.63;10.32;;;;;;;5.91;74.97;100828.09;1088084;54;20034;-76
2021/10/11 01:23:04;;;;;;;14.93;10.80;;;;;;;5.85;74.99;100826.66;1089167;46;20025;-76
2021/10/11 01:24:05;;;;;;;13.98;9.88;;;;;;;5.87;75.12;100823.91;1088158;54;20087;-76
2021/10/11 01:25:12;;;;;;;14.30;10.27;;;;;;;5.87;75.03;100822.13;1088095;54;20030;-77
2021/10/11 01:26:14;;;;;;;13.43;9.52;;;;;;;5.94;74.86;100825.25;1088095;54;20031;-77
2021/10/11 01:27:18;;;;;;;15.88;9.80;;;;;;;5.96;74.94;100823.31;1088145;54;20082;-76
2021/10/11 01:28:21;;;;;;;15.07;9.68;;;;;;;6.00;74.77;100824.88;1088208;54;20038;-76
2021/10/11 01:29:25;;;;;;;13.48;9.40;;;;;;;6.02;74.84;100823.00;1088180;54;20030;-77
2021/10/11 01:30:26;;;;;;;12.80;8.82;;;;;;;6.07;74.79;100823.53;1088130;54;20045;-76
2021/10/11 01:31:30;;;;;;;13.10;9.48;;;;;;;6.14;74.69;100831.13;1087966;54;20027;-76
2021/10/11 01:32:32;;;;;;;11.65;8.40;;;;;;;6.16;74.49;100826.56;1087758;54;20038;-76
2021/10/11 01:33:36;;;;;;;12.25;8.40;;;;;;;6.20;74.39;100825.44;1089195;39;20269;-75
2021/10/11 01:34:38;;;;;;;13.20;9.13;;;;;;;6.11;74.63;100826.00;1087647;54;20034;-76
2021/10/11 01:35:42;;;;;;;14.90;10.52;;;;;;;5.96;75.15;100818.00;1087797;54;20034;-76
2021/10/11 01:36:46;;;;;;;20.25;11.85;;;;;;;5.87;75.31;100821.25;1087649;54;20058;-75
2021/10/11 01:37:51;;;;;;;16.27;11.30;;;;;;;5.85;75.65;100820.50;1087897;54;20031;-77
2021/10/11 01:38:54;;;;;;;16.60;11.15;;;;;;;5.89;75.33;100817.56;1088035;54;20027;-76
2021/10/11 01:39:58;;;;;;;13.98;10.25;;;;;;;5.92;75.37;100817.34;1088024;54;20030;-76
2021/10/11 01:40:59;;;;;;;14.57;10.32;;;;;;;5.99;75.30;100812.56;1087959;54;21358;-77
2021/10/11 01:42:04;;;;;;;18.45;10.38;;;;;;;6.03;75.18;100815.88;1088058;54;20049;-76
2021/10/11 01:43:06;;;;;;;13.98;10.57;;;;;;;6.04;74.89;100815.78;1088055;54;20038;-77
2021/10/11 01:44:10;;;;;;;16.33;10.00;;;;;;;6.06;74.82;100813.88;1088863;46;20089;-77
2021/10/11 01:45:13;;;;;;;17.63;10.60;;;;;;;6.06;75.06;100813.88;1088099;54;20046;-76
2021/10/11 01:46:18;;;;;;;15.02;10.40;;;;;;;6.00;75.00;100818.75;1088179;54;20050;-78
2021/10/11 01:47:22;;;;;;;18.42;11.68;;;;;;;5.92;75.33;100814.72;1089362;39;20233;-76
2021/10/11 01:48:26;;;;;;;18.10;11.38;;;;;;;5.89;75.42;100814.91;1088071;54;20065;-75
2021/10/11 01:49:27;;;;;;;15.88;11.00;;;;;;;5.87;75.52;100821.25;1089519;46;20037;-76
2021/10/11 01:50:32;;;;;;;15.00;11.18;;;;;;;5.83;75.80;100812.63;1088007;54;20037;-76
2021/10/11 01:51:34;;;;;;;15.05;10.85;;;;;;;5.87;75.70;100813.28;1087334;54;20103;-76
2021/10/11 01:52:41;;;;;;;16.30;11.32;;;;;;;5.86;75.58;100819.53;1087628;54;20031;-77
2021/10/11 01:53:42;;;;;;;14.18;10.13;;;;;;;5.88;75.63;100820.31;1087738;54;20046;-76
2021/10/11 01:54:46;;;;;;;15.45;10.80;;;;;;;5.84;75.59;100818.81;1087608;54;20040;-77
2021/10/11 01:55:48;;;;;;;15.68;10.70;;;;;;;5.82;75.55;100816.22;1087553;54;20705;-77
2021/10/11 01:56:52;;;;;;;15.57;10.93;;;;;;;5.80;75.54;100818.16;1087629;54;20052;-76
2021/10/11 01:57:53;;;;;;;15.55;10.20;;;;;;;5.82;75.40;100820.69;1087680;54;20035;-77
2021/10/11 01:58:58;;;;;;;16.60;11.20;;;;;;;5.85;75.45;100815.22;1092561;39;20852;-75
2021/10/11 01:59:59;;;;;;;15.15;11.13;;;;;;;5.84;75.33;100817.00;1087585;54;20035;-77
2021/10/11 02:01:04;;;;;;;17.15;10.77;;;;;;;5.84;75.28;100809.03;1087568;54;20068;-76
2021/10/11 02:02:05;;;;;;;15.90;10.50;;;;;;;5.89;74.95;100811.41;1087568;54;20042;-76
2021/10/11 02:03:10;;;;;;;14.40;10.25;;;;;;;5.85;75.36;100802.78;1087505;54;21097;-77
2021/10/11 02:04:11;;;;;;;15.35;10.65;;;;;;;5.83;75.38;100806.47;1087518;54;20045;-76
2021/10/11 02:05:17;;;;;;;16.20;10.93;;;;;;;5.84;75.25;100813.50;1088432;39;20691;-76
2021/10/11 02:06:18;;;;;;;12.50;9.90;;;;;;;5.86;75.23;100806.25;1087443;54;20034;-77
2021/10/11 02:07:22;;;;;;;13.80;9.65;;;;;;;5.96;74.96;100806.56;1087575;54;20035;-77
2021/10/11 02:08:26;;;;;;;12.70;9.02;;;;;;;6.01;74.72;100810.66;1087442;54;20041;-76
2021/10/11 02:09:31;;;;;;;12.27;9.57;;;;;;;6.01;74.82;100805.34;1087404;54;20042;-76
2021/10/11 02:10:35;;;;;;;13.13;9.35;;;;;;;5.96;75.03;100801.25;1088076;46;20050;-75
2021/10/11 02:11:37;;;;;;;12.15;8.98;;;;;;;5.98;75.05;100807.31;1087554;54;20058;-76
2021/10/11 02:12:41;;;;;;;14.27;9.82;;;;;;;6.04;74.75;100801.66;1087453;54;20038;-76
2021/10/11 02:13:42;;;;;;;14.20;9.98;;;;;;;6.05;74.71;100809.50;1087569;54;20045;-77
2021/10/11 02:14:48;;;;;;;11.73;8.50;;;;;;;6.13;74.35;100808.19;1087453;54;20090;-76
2021/10/11 02:15:49;;;;;;;13.27;8.48;;;;;;;6.15;74.28;100803.59;1087535;54;20057;-77
2021/10/11 02:16:54;;;;;;;11.70;8.80;;;;;;;6.17;74.24;100807.91;1088996;39;20855;-76
2021/10/11 02:17:56;;;;;;;12.68;8.98;;;;;;;6.11;74.29;100797.66;1087561;54;20030;-76
2021/10/11 02:19:00;;;;;;;12.38;9.05;;;;;;;6.06;74.50;100803.25;1087606;54;20796;-76
2021/10/11 02:20:04;;;;;;;11.27;8.40;;;;;;;6.11;74.57;100802.97;1088050;39;20673;-76
2021/10/11 02:21:08;;;;;;;13.32;9.20;;;;;;;6.06;74.62;100797.94;1087680;54;20042;-77
2021/10/11 02:22:09;;;;;;;13.70;9.35;;;;;;;5.92;74.83;100797.94;1087540;54;20038;-77
2021/10/11 02:23:14;;;;;;;17.27;10.25;;;;;;;5.81;75.32;100798.59;1087101;54;20118;-76
2021/10/11 02:24:18;;;;;;;16.10;11.07;;;;;;;5.68;75.90;100798.50;1092182;39;20551;-76
2021/10/11 02:25:22;;;;;;;18.08;11.07;;;;;;;5.65;75.88;100805.81;1087517;54;20042;-77
2021/10/11 02:26:24;;;;;;;14.18;10.57;;;;;;;5.67;75.60;100794.16;1087491;54;20047;-76
2021/10/11 02:27:28;;;;;;;14.00;10.25;;;;;;;5.66;76.03;100792.47;1087410;54;20705;-77
2021/10/11 02:28:30;;;;;;;15.60;10.25;;;;;;;5.66;75.89;100797.78;1087578;54;20062;-76
2021/10/11 02:29:34;;;;;;;16.02;9.93;;;;;;;5.77;75.69;100789.13;1087547;54;20034;-77
2021/10/11 02:30:36;;;;;;;13.25;9.57;;;;;;;5.86;75.22;100785.03;1087456;54;20741;-76
2021/10/11 02:31:40;;;;;;;12.80;9.05;;;;;;;5.90;75.22;100790.06;1087499;54;20053;-77
2021/10/11 02:32:41;;;;;;;11.73;8.85;;;;;;;5.91;74.95;100790.94;1087457;54;20065;-77
2021/10/11 02:33:46;;;;;;;10.85;8.40;;;;;;;5.87;74.92;100784.09;1087568;54;20064;-77
2021/10/11 02:34:47;;;;;;;13.23;9.13;;;;;;;5.86;75.01;100783.25;1087562;54;20031;-76
2021/10/11 02:35:51;;;;;;;13.18;9.27;;;;;;;5.96;74.70;100796.78;1087506;54;20034;-76
2021/10/11 02:36:53;;;;;;;11.07;8.88;;;;;;;5.92;74.85;100795.28;1087483;54;20053;-77
2021/10/11 02:37:57;;;;;;;11.48;8.20;;;;;;;5.94;74.54;100793.41;1087548;54;20106;-77
2021/10/11 02:38:59;;;;;;;11.52;8.43;;;;;;;6.00;74.50;100792.19;1087558;54;20035;-76
2021/10/11 02:40:07;;;;;;;11.93;8.95;;;;;;;5.93;74.60;100789.88;1088820;39;20330;-77
2021/10/11 02:41:08;;;;;;;12.73;8.45;;;;;;;5.95;74.22;100805.72;1088068;54;20034;-76
2021/10/11 02:42:12;;;;;;;12.70;8.73;;;;;;;5.97;74.25;100790.53;1087606;54;20034;-76
2021/10/11 02:43:14;;;;;;;12.20;8.15;;;;;;;6.01;74.25;100789.44;1087553;54;20034;-77
2021/10/11 02:44:18;;;;;;;12.70;8.55;;;;;;;6.05;73.99;100790.91;1087637;54;20052;-76
2021/10/11 02:45:20;;;;;;;11.90;7.80;;;;;;;6.08;74.06;100796.03;1087940;39;20642;-75
2021/10/11 02:46:24;;;;;;;10.30;7.55;;;;;;;6.11;73.60;100797.66;1087539;54;20037;-77
2021/10/11 02:47:25;;;;;;;12.68;8.52;;;;;;;6.13;73.88;100797.56;1087286;54;20662;-75
2021/10/11 02:48:30;;;;;;;11.38;7.70;;;;;;;6.14;73.66;100793.97;1087596;54;20031;-76
2021/10/11 02:49:31;;;;;;;10.93;8.25;;;;;;;6.13;73.47;100792.25;1087535;54;20015;-76
2021/10/11 02:50:36;;;;;;;11.45;8.27;;;;;;;6.11;73.48;100778.22;1087591;54;20081;-76
2021/10/11 02:51:37;;;;;;;13.43;8.20;;;;;;;6.08;73.72;100779.28;1087396;54;20057;-76
2021/10/11 02:52:41;;;;;;;11.48;7.43;;;;;;;6.09;73.69;100775.69;1087390;54;20057;-76
2021/10/11 02:53:45;;;;;;;9.65;7.20;;;;;;;6.09;73.92;100776.53;1087572;54;20038;-76
2021/10/11 02:54:49;;;;;;;10.82;7.45;;;;;;;6.12;73.87;100774.63;1087570;54;20030;-76
2021/10/11 02:55:56;;;;;;;11.30;7.43;;;;;;;6.14;73.68;100780.69;1087531;54;20035;-76
2021/10/11 02:56:58;;;;;;;11.02;6.95;;;;;;;6.06;73.91;100768.75;1087556;54;20034;-76
2021/10/11 02:58:02;;;;;;;11.02;8.48;;;;;;;5.95;74.19;100773.88;1087510;54;20046;-76
2021/10/11 02:59:04;;;;;;;14.02;8.45;;;;;;;5.90;73.95;100768.00;1087598;54;20034;-76
2021/10/11 03:00:10;;;;;;;13.15;9.98;;;;;;;5.85;74.00;100770.09;1087575;54;20039;-76
2021/10/11 03:01:14;;;;;;;14.27;10.10;;;;;;;5.76;74.30;100775.00;1087600;54;20035;-75
2021/10/11 03:02:18;;;;;;;12.63;9.23;;;;;;;5.77;74.40;100776.72;1087509;54;20038;-76
2021/10/11 03:03:20;;;;;;;17.25;11.40;;;;;;;5.59;74.71;100777.84;1087545;54;20026;-76
2021/10/11 03:04:24;;;;;;;13.55;9.80;;;;;;;5.56;75.10;100770.09;1087428;54;20034;-76
2021/10/11 03:05:26;;;;;;;16.25;11.40;;;;;;;5.47;75.05;100775.03;1087543;54;20065;-76
2021/10/11 03:06:30;;;;;;;14.43;10.45;;;;;;;5.45;75.28;100770.75;1087313;54;20693;-76
2021/10/11 03:07:32;;;;;;;14.02;10.10;;;;;;;5.32;75.44;100762.69;1087651;54;20035;-76
2021/10/11 03:08:37;;;;;;;16.70;11.15;;;;;;;5.30;75.55;100761.94;1087580;54;20057;-76
2021/10/11 03:09:39;;;;;;;16.23;10.18;;;;;;;5.41;75.37;100756.81;1087589;54;20038;-76
2021/10/11 03:10:43;;;;;;;13.43;10.10;;;;;;;5.54;74.89;100756.06;1087610;54;20034;-76
2021/10/11 03:11:47;;;;;;;15.15;11.02;;;;;;;5.23;75.88;100763.25;1087577;54;20030;-76
2021/10/11 03:12:51;;;;;;;13.85;10.48;;;;;;;5.18;76.00;100747.63;1087544;54;20038;-76
2021/10/11 03:13:54;;;;;;;13.82;10.23;;;;;;;5.20;75.98;100744.88;1087549;54;20014;-76
2021/10/11 03:14:58;;;;;;;12.68;10.07;;;;;;;5.34;75.49;100741.41;1087440;54;20103;-76
2021/10/11 03:15:59;;;;;;;13.05;9.73;;;;;;;5.49;75.27;100734.28;1089455;39;20465;-76
2021/10/11 03:17:03;;;;;;;12.63;9.27;;;;;;;5.55;74.71;100733.91;1087483;54;20373;-76
2021/10/11 03:18:05;;;;;;;13.57;9.73;;;;;;;5.59;74.95;100732.75;1087507;54;20042;-75
2021/10/11 03:19:09;;;;;;;13.00;9.25;;;;;;;5.60;74.59;100727.38;1087971;39;20598;-76
2021/10/11 03:20:11;;;;;;;12.98;8.75;;;;;;;5.62;74.35;100730.75;1087484;54;20049;-76
2021/10/11 03:21:17;;;;;;;12.55;8.52;;;;;;;5.62;74.40;100730.75;1087556;54;20085;-76
2021/10/11 03:22:22;;;;;;;13.07;8.85;;;;;;;5.65;74.33;100728.88;1088042;46;20046;-76
2021/10/11 03:23:23;;;;;;;11.68;8.68;;;;;;;5.66;74.28;100726.16;1087386;54;20046;-76
2021/10/11 03:24:28;;;;;;;12.77;9.27;;;;;;;5.67;74.07;100722.50;1087619;54;20042;-76
2021/10/11 03:25:29;;;;;;;11.68;8.27;;;;;;;5.69;74.02;100719.78;1087332;54;20053;-76
2021/10/11 03:26:33;;;;;;;11.35;7.75;;;;;;;5.68;73.97;100718.91;1087367;54;20035;-76
2021/10/11 03:27:38;;;;;;;12.10;7.72;;;;;;;5.69;73.89;100714.47;1087476;54;20058;-76
2021/10/11 03:28:42;;;;;;;12.57;8.55;;;;;;;5.67;73.78;100711.91;1087910;47;20058;-76
2021/10/11 03:29:43;;;;;;;10.48;7.00;;;;;;;5.71;73.93;100717.91;1087565;54;20030;-76
2021/10/11 03:30:48;;;;;;;11.10;7.95;;;;;;;5.72;73.85;100708.97;1087447;54;20065;-76
2021/10/11 03:31:49;;;;;;;10.43;7.20;;;;;;;5.71;73.88;100718.72;1087528;54;20026;-75
2021/10/11 03:32:53;;;;;;;14.38;10.00;;;;;;;5.43;74.52;100717.81;1087418;54;20030;-75
2021/10/11 03:33:55;;;;;;;14.98;11.18;;;;;;;5.30;74.89;100716.84;1087498;54;20031;-75
2021/10/11 03:34:59;;;;;;;14.27;10.90;;;;;;;5.32;74.93;100717.63;1087477;54;20077;-76
2021/10/11 03:36:01;;;;;;;13.75;10.70;;;;;;;5.31;74.92;100713.25;1087360;54;20689;-76
2021/10/11 03:37:05;;;;;;;14.68;10.88;;;;;;;5.37;74.79;100719.97;1087425;54;20034;-76
2021/10/11 03:38:07;;;;;;;15.43;10.18;;;;;;;5.35;74.67;100717.44;1087379;54;20037;-76
2021/10/11 03:39:11;;;;;;;13.80;9.55;;;;;;;5.26;74.79;100712.69;1087475;54;20049;-76
2021/10/11 03:40:13;;;;;;;15.40;10.57;;;;;;;5.15;75.10;100722.16;1087423;54;20034;-76
2021/10/11 03:41:17;;;;;;;13.90;9.75;;;;;;;5.28;74.55;100721.41;1087421;54;20038;-76
2021/10/11 03:42:19;;;;;;;13.43;9.48;;;;;;;5.33;74.41;100723.78;1087265;54;20030;-76
2021/10/11 03:43:26;;;;;;;14.48;9.45;;;;;;;5.31;74.23;100721.22;1088764;39;20575;-76
2021/10/11 03:44:28;;;;;;;14.32;9.68;;;;;;;5.21;74.18;100728.03;1087395;54;20023;-76
2021/10/11 03:45:32;;;;;;;14.73;9.15;;;;;;;5.23;74.57;100712.88;1087263;54;20031;-76
2021/10/11 03:46:34;;;;;;;15.60;9.52;;;;;;;5.18;74.57;100722.91;1087576;47;20031;-76
2021/10/11 03:47:40;;;;;;;12.65;8.90;;;;;;;5.24;74.33;100709.28;1087296;54;20039;-76
2021/10/11 03:48:41;;;;;;;12.27;8.30;;;;;;;5.26;74.05;100724.16;1087448;54;20031;-76
2021/10/11 03:49:45;;;;;;;10.73;7.60;;;;;;;5.31;73.93;100726.50;1093081;39;20696;-76
2021/10/11 03:50:47;;;;;;;14.30;8.68;;;;;;;5.27;73.72;100723.19;1087382;54;20081;-77
2021/10/11 03:51:51;;;;;;;11.25;8.52;;;;;;;5.23;73.86;100729.66;1087173;54;20049;-76
2021/10/11 03:52:52;;;;;;;11.93;8.35;;;;;;;5.28;73.51;100739.97;1087332;54;20034;-75
2021/10/11 03:53:57;;;;;;;12.60;9.32;;;;;;;5.21;73.85;100742.13;1087498;54;20037;-76
2021/10/11 03:54:58;;;;;;;13.77;9.32;;;;;;;5.14;73.73;100746.13;1087462;54;20038;-75
2021/10/11 03:56:03;;;;;;;13.48;9.35;;;;;;;5.12;73.88;100758.59;1087199;54;20052;-76
2021/10/11 03:57:04;;;;;;;12.32;9.52;;;;;;;5.05;74.33;100768.72;1087055;54;20034;-76
2021/10/11 03:58:08;;;;;;;14.55;9.82;;;;;;;5.01;74.10;100764.53;1087025;54;20037;-76
2021/10/11 03:59:13;;;;;;;14.88;10.63;;;;;;;5.03;74.18;100777.72;1087107;54;20030;-75
2021/10/11 04:00:18;;;;;;;12.73;10.00;;;;;;;4.96;74.60;100785.16;1087440;54;20031;-75
2021/10/11 04:01:19;;;;;;;15.77;11.02;;;;;;;4.89;74.72;100789.97;1087418;54;20054;-75
2021/10/11 04:02:24;;;;;;;15.90;11.20;;;;;;;4.88;74.94;100782.13;1087340;54;20037;-76
2021/10/11 04:03:26;;;;;;;19.13;14.63;;;;;;;4.89;75.05;100789.13;1087311;54;20034;-75
2021/10/11 04:04:32;;;;;;;16.60;12.18;;;;;;;4.87;75.11;100780.41;1087433;54;20034;-76
2021/10/11 04:05:35;;;;;;;15.60;11.98;;;;;;;4.90;75.17;100788.19;1087396;54;20049;-76
2021/10/11 04:06:39;;;;;;;19.23;13.05;;;;;;;4.90;75.27;100774.94;1087270;54;20058;-76
2021/10/11 04:07:43;;;;;;;16.67;11.73;;;;;;;4.83;75.53;100774.44;1087447;54;20030;-75
2021/10/11 04:08:48;;;;;;;16.52;12.82;;;;;;;4.87;75.41;100783.06;1087385;54;20034;-75
2021/10/11 04:09:50;;;;;;;17.77;11.60;;;;;;;4.86;75.54;100782.22;1087423;54;20054;-76
2021/10/11 04:10:59;;;;;;;16.40;11.68;;;;;;;4.83;75.46;100783.22;1087452;54;20034;-76
2021/10/11 04:12:06;;;;;;;17.67;11.35;;;;;;;4.84;75.59;100771.69;1087384;54;20078;-76
2021/10/11 04:13:10;;;;;;;15.57;10.85;;;;;;;4.86;75.62;100771.63;1087305;54;20033;-75
2021/10/11 04:14:15;;;;;;;17.35;11.10;;;;;;;4.85;75.47;100772.56;1087386;54;20035;-75
2021/10/11 04:15:19;;;;;;;15.48;10.80;;;;;;;4.87;75.51;100780.41;1087834;47;20042;-74
2021/10/11 04:16:21;;;;;;;16.83;11.65;;;;;;;4.88;75.36;100774.16;1087420;54;20035;-75
2021/10/11 04:17:25;;;;;;;14.70;10.85;;;;;;;4.86;75.27;100776.03;1087330;54;20027;-76
2021/10/11 04:18:27;;;;;;;15.48;11.13;;;;;;;4.90;75.33;100766.97;1087319;54;20038;-76
2021/10/11 04:19:32;;;;;;;16.50;10.63;;;;;;;4.88;75.33;100771.50;1087400;54;20031;-75
2021/10/11 04:20:34;;;;;;;12.98;9.95;;;;;;;4.93;75.19;100777.38;1087391;54;20038;-76
2021/10/11 04:21:42;;;;;;;15.88;9.77;;;;;;;4.87;75.07;100780.41;1087354;54;20030;-77
2021/10/11 04:22:44;;;;;;;12.00;9.30;;;;;;;4.92;75.02;100778.31;1087405;54;20031;-75
2021/10/11 04:23:48;;;;;;;13.15;10.02;;;;;;;4.91;75.20;100784.59;1087338;54;20037;-75
2021/10/11 04:24:49;;;;;;;18.42;10.18;;;;;;;4.93;75.03;100791.50;1087814;39;20689;-76
2021/10/11 04:25:54;;;;;;;13.25;9.77;;;;;;;4.94;74.66;100781.75;1092490;39;20249;-76
2021/10/11 04:26:55;;;;;;;14.65;9.85;;;;;;;5.01;74.82;100785.72;1087371;54;20031;-75
2021/10/11 04:27:59;;;;;;;11.50;8.43;;;;;;;5.07;74.76;100790.69;1087958;47;20034;-75
2021/10/11 04:29:01;;;;;;;12.07;8.88;;;;;;;5.08;74.55;100779.16;1087479;54;20042;-76
2021/10/11 04:30:09;;;;;;;13.52;8.18;;;;;;;5.05;74.20;100784.63;1087264;54;20031;-76
2021/10/11 04:31:11;;;;;;;13.50;8.82;;;;;;;5.07;74.36;100790.69;1089371;39;20641;-75
2021/10/11 04:32:15;;;;;;;13.63;9.40;;;;;;;5.07;74.07;100789.81;1087269;54;20042;-76
2021/10/11 04:33:17;;;;;;;13.85;9.80;;;;;;;5.06;74.46;100791.63;1087363;54;20033;-76
2021/10/11 04:34:21;;;;;;;11.00;7.70;;;;;;;5.10;74.24;100798.44;1087357;54;20135;-75
2021/10/11 04:35:25;;;;;;;10.70;8.05;;;;;;;5.08;73.97;100797.69;1087287;54;20062;-76
2021/10/11 04:36:29;;;;;;;11.68;8.05;;;;;;;5.09;74.15;100790.59;1087298;54;20035;-75
2021/10/11 04:37:31;;;;;;;14.25;8.98;;;;;;;5.09;74.25;100788.81;1087320;54;20042;-75
2021/10/11 04:38:35;;;;;;;12.82;7.93;;;;;;;5.10;74.32;100787.84;1087370;54;20758;-75
2021/10/11 04:39:36;;;;;;;10.55;7.95;;;;;;;5.08;74.21;100789.75;1087372;54;20036;-76
2021/10/11 04:40:41;;;;;;;12.35;8.48;;;;;;;5.05;74.16;100783.78;1087300;54;20038;-76
2021/10/11 04:41:42;;;;;;;12.65;8.13;;;;;;;5.05;74.51;100792.56;1087372;54;20038;-75
2021/10/11 04:42:47;;;;;;;12.02;8.23;;;;;;;5.07;74.36;100793.34;1087345;54;20057;-75
2021/10/11 04:43:49;;;;;;;10.10;7.78;;;;;;;5.02;74.37;100786.59;1087314;54;20031;-75
2021/10/11 04:44:53;;;;;;;12.07;8.60;;;;;;;4.99;74.44;100792.94;1087339;54;20103;-76
2021/10/11 04:45:57;;;;;;;12.70;9.18;;;;;;;4.99;74.57;100790.28;1087236;54;20031;-76
2021/10/11 04:47:02;;;;;;;13.30;8.63;;;;;;;5.02;74.70;100789.25;1087631;54;20042;-76
2021/10/11 04:48:07;;;;;;;13.95;8.43;;;;;;;5.03;74.48;100797.09;1087666;54;20045;-77
2021/10/11 04:49:11;;;;;;;14.30;8.77;;;;;;;4.98;74.53;100792.06;1087722;54;20031;-76
2021/10/11 04:50:13;;;;;;;14.32;8.85;;;;;;;4.95;74.85;100794.91;1087697;54;20035;-77
2021/10/11 04:51:17;;;;;;;14.98;9.00;;;;;;;4.94;74.90;100795.00;1087198;54;20035;-75
2021/10/11 04:52:19;;;;;;;11.70;8.38;;;;;;;4.95;75.02;100794.06;1087684;54;20030;-75
2021/10/11 04:53:23;;;;;;;12.73;7.85;;;;;;;4.96;74.88;100785.16;1087669;54;20048;-76